createdAt,value
2022-08-19T00:00:50.617Z,86.30
2022-08-19T00:03:15.694Z,86.30
2022-08-19T00:05:39.656Z,87.00
2022-08-19T00:08:03.456Z,87.30
2022-08-19T00:10:33.289Z,87.00
2022-08-19T00:12:57.268Z,87.30
2022-08-19T00:15:23.588Z,87.00
2022-08-19T00:17:48.896Z,87.70
2022-08-19T00:20:17.998Z,87.70
2022-08-19T00:22:42.433Z,87.60
2022-08-19T00:25:07.635Z,87.90
2022-08-19T00:27:31.183Z,87.40
2022-08-19T00:29:54.922Z,87.20
2022-08-19T00:32:18.587Z,87.10
2022-08-19T00:34:42.867Z,87.00
2022-08-19T00:37:08.274Z,87.10
2022-08-19T00:39:32.362Z,87.10
2022-08-19T00:41:55.954Z,87.10
2022-08-19T00:44:27.175Z,88.10
2022-08-19T00:46:57.913Z,88.00
2022-08-19T00:49:27.021Z,87.90
2022-08-19T00:51:59.628Z,88.30
2022-08-19T00:54:29.902Z,88.10
2022-08-19T00:56:55.569Z,88.00
2022-08-19T01:00:00.850Z,88.60
2022-08-19T01:02:10.571Z,87.80
2022-08-19T01:04:34.171Z,87.80
2022-08-19T01:06:58.850Z,87.80
2022-08-19T01:09:22.519Z,87.90
2022-08-19T01:11:48.206Z,87.40
2022-08-19T01:14:13.220Z,88.00
2022-08-19T01:16:39.913Z,88.80
2022-08-19T01:19:04.359Z,89.00
2022-08-19T01:21:34.022Z,88.80
2022-08-19T01:23:59.145Z,88.50
2022-08-19T01:26:25.974Z,88.40
2022-08-19T01:28:52.572Z,88.60
2022-08-19T01:31:26.830Z,88.70
2022-08-19T01:33:52.066Z,89.10
2022-08-19T01:36:27.646Z,88.70
2022-08-19T01:38:51.630Z,88.80
2022-08-19T01:41:17.210Z,88.90
2022-08-19T01:44:03.225Z,88.70
2022-08-19T01:46:25.201Z,88.90
2022-08-19T01:48:49.184Z,89.50
2022-08-19T01:51:13.929Z,89.70
2022-08-19T01:53:38.156Z,88.60
2022-08-19T01:56:02.329Z,88.60
2022-08-19T01:58:32.498Z,88.30
2022-08-19T02:00:56.226Z,88.80
2022-08-19T02:03:19.766Z,88.70
2022-08-19T02:05:45.383Z,88.80
2022-08-19T02:08:10.159Z,88.70
2022-08-19T02:10:34.060Z,89.10
2022-08-19T02:12:57.803Z,89.10
2022-08-19T02:15:23.399Z,89.00
2022-08-19T02:17:47.258Z,89.10
2022-08-19T02:20:14.080Z,89.40
2022-08-19T02:22:37.946Z,89.80
2022-08-19T02:25:01.950Z,90.00
2022-08-19T02:27:26.536Z,89.80
2022-08-19T02:29:51.238Z,89.80
2022-08-19T02:32:16.119Z,89.50
2022-08-19T02:34:39.746Z,89.50
2022-08-19T02:37:03.986Z,89.70
2022-08-19T02:39:27.342Z,89.50
2022-08-19T02:41:53.047Z,91.20
2022-08-19T02:44:30.989Z,90.30
2022-08-19T02:46:56.034Z,91.90
2022-08-19T02:49:21.384Z,91.80
2022-08-19T02:51:48.113Z,92.40
2022-08-19T02:54:14.541Z,92.30
2022-08-19T02:56:44.164Z,92.50
2022-08-19T02:59:12.087Z,92.30
2022-08-19T03:01:36.382Z,92.30
2022-08-19T03:04:03.234Z,92.40
2022-08-19T03:06:28.975Z,92.60
2022-08-19T03:08:53.222Z,92.70
2022-08-19T03:11:19.544Z,92.60
2022-08-19T03:13:44.416Z,91.40
2022-08-19T03:16:08.307Z,92.70
2022-08-19T03:18:31.829Z,93.00
2022-08-19T03:20:55.895Z,93.10
2022-08-19T03:23:21.593Z,91.40
2022-08-19T03:26:02.998Z,91.60
2022-08-19T03:28:35.932Z,93.10
2022-08-19T03:31:02.165Z,93.10
2022-08-19T03:33:29.742Z,93.60
2022-08-19T03:36:08.238Z,93.00
2022-08-19T03:38:34.370Z,92.10
2022-08-19T03:40:57.942Z,93.60
2022-08-19T03:43:22.163Z,91.90
2022-08-19T03:45:45.698Z,93.60
2022-08-19T03:48:09.532Z,93.90
2022-08-19T03:50:33.681Z,93.60
2022-08-19T03:52:57.476Z,93.80
2022-08-19T03:55:23.501Z,93.50
2022-08-19T03:57:49.631Z,93.80
2022-08-19T04:00:15.023Z,95.00
2022-08-19T04:02:38.584Z,94.90
2022-08-19T04:05:02.201Z,94.80
2022-08-19T04:07:25.912Z,94.40
2022-08-19T04:09:52.947Z,94.00
2022-08-19T04:12:18.006Z,93.80
2022-08-19T04:14:42.394Z,94.10
2022-08-19T04:17:06.958Z,93.90
2022-08-19T04:19:33.531Z,93.50
2022-08-19T04:21:57.567Z,93.40
2022-08-19T04:24:24.347Z,94.40
2022-08-19T04:26:48.811Z,94.20
2022-08-19T04:29:17.914Z,95.00
2022-08-19T04:31:43.334Z,94.70
2022-08-19T04:34:11.760Z,94.40
2022-08-19T04:36:37.936Z,94.50
2022-08-19T04:39:05.119Z,94.40
2022-08-19T04:41:46.664Z,94.60
2022-08-19T04:44:10.867Z,94.90
2022-08-19T04:46:40.154Z,95.30
2022-08-19T04:49:14.856Z,95.10
2022-08-19T04:51:42.078Z,94.80
2022-08-19T04:54:06.614Z,95.10
2022-08-19T04:56:30.640Z,95.00
2022-08-19T04:58:54.894Z,95.20
2022-08-19T05:01:22.885Z,95.60
2022-08-19T05:03:48.384Z,95.50
2022-08-19T05:06:16.768Z,95.10
2022-08-19T05:08:44.102Z,95.10
2022-08-19T05:11:14.124Z,95.60
2022-08-19T05:13:37.872Z,96.00
2022-08-19T05:16:06.533Z,96.20
2022-08-19T05:18:47.804Z,96.10
2022-08-19T05:21:33.076Z,95.90
2022-08-19T05:23:56.735Z,96.10
2022-08-19T05:26:20.303Z,96.40
2022-08-19T05:28:44.180Z,95.80
2022-08-19T05:31:08.251Z,95.40
2022-08-19T05:33:32.849Z,94.80
2022-08-19T05:35:57.018Z,95.40
2022-08-19T05:38:22.427Z,93.40
2022-08-19T05:40:47.652Z,93.90
2022-08-19T05:43:11.236Z,94.30
2022-08-19T05:45:35.079Z,92.60
2022-08-19T05:47:59.248Z,93.20
2022-08-19T05:50:23.458Z,93.40
2022-08-19T05:52:50.176Z,93.40
2022-08-19T05:55:16.096Z,92.70
2022-08-19T05:57:39.961Z,92.60
2022-08-19T06:00:05.985Z,92.50
2022-08-19T06:02:36.432Z,92.90
2022-08-19T06:05:00.154Z,91.80
2022-08-19T06:07:24.017Z,92.10
2022-08-19T06:09:54.362Z,92.50
2022-08-19T06:12:29.636Z,92.00
2022-08-19T06:15:00.792Z,90.90
2022-08-19T06:17:26.630Z,91.30
2022-08-19T06:19:51.003Z,90.70
2022-08-19T06:22:14.718Z,90.80
2022-08-19T06:24:38.271Z,90.60
2022-08-19T06:27:03.961Z,91.10
2022-08-19T06:29:30.844Z,91.80
2022-08-19T06:31:57.388Z,91.70
2022-08-19T06:34:22.009Z,90.20
2022-08-19T06:36:49.605Z,90.30
2022-08-19T06:39:18.505Z,90.00
2022-08-19T06:41:51.213Z,89.90
2022-08-19T06:44:17.093Z,89.50
2022-08-19T06:46:43.285Z,89.40
2022-08-19T06:49:11.210Z,88.30
2022-08-19T06:51:35.410Z,88.80
2022-08-19T06:54:06.815Z,87.80
2022-08-19T06:56:44.586Z,88.10
2022-08-19T06:59:11.790Z,87.90
2022-08-19T07:01:38.508Z,86.00
2022-08-19T07:04:03.535Z,85.50
2022-08-19T07:06:43.717Z,85.00
2022-08-19T07:09:11.098Z,85.30
2022-08-19T07:11:36.231Z,85.40
2022-08-19T07:13:59.875Z,85.40
2022-08-19T07:16:28.986Z,85.40
2022-08-19T07:18:54.220Z,85.90
2022-08-19T07:21:22.374Z,86.00
2022-08-19T07:23:47.547Z,86.20
2022-08-19T07:26:14.739Z,86.00
2022-08-19T07:28:40.179Z,86.00
2022-08-19T07:31:22.729Z,85.80
2022-08-19T07:33:49.431Z,85.80
2022-08-19T07:36:24.445Z,85.20
2022-08-19T07:38:52.854Z,85.40
2022-08-19T07:41:21.393Z,84.40
2022-08-19T07:43:45.467Z,87.00
2022-08-19T07:48:38.850Z,85.50
2022-08-19T07:51:06.478Z,86.50
2022-08-19T07:53:39.540Z,85.40
2022-08-19T07:56:05.017Z,85.60
2022-08-19T07:58:29.010Z,85.90
2022-08-19T08:00:53.557Z,83.70
2022-08-19T08:03:21.615Z,83.50
2022-08-19T08:06:03.590Z,83.40
2022-08-19T08:08:48.203Z,83.90
2022-08-19T08:11:15.513Z,83.90
2022-08-19T08:13:39.452Z,85.40
2022-08-19T08:16:32.150Z,85.20
2022-08-19T08:18:56.296Z,86.50
2022-08-19T08:21:19.981Z,85.60
2022-08-19T08:23:44.091Z,86.10
2022-08-19T08:26:08.003Z,85.90
2022-08-19T08:28:33.484Z,84.20
2022-08-19T08:30:57.706Z,83.90
2022-08-19T08:33:33.136Z,83.10
2022-08-19T08:35:58.844Z,81.90
2022-08-19T08:38:22.557Z,84.20
2022-08-19T08:40:50.943Z,82.80
2022-08-19T08:43:27.727Z,82.40
2022-08-19T08:46:03.736Z,79.80
2022-08-19T08:48:40.521Z,80.10
2022-08-19T08:51:07.809Z,79.30
2022-08-19T08:53:35.552Z,78.70
2022-08-19T08:56:09.472Z,79.60
2022-08-19T08:58:54.787Z,79.90
2022-08-19T09:01:20.273Z,79.70
2022-08-19T09:03:46.430Z,79.30
2022-08-19T09:06:18.156Z,79.30
2022-08-19T09:08:51.409Z,78.50
2022-08-19T09:11:44.627Z,75.40
2022-08-19T09:14:47.415Z,76.80
2022-08-19T09:17:10.080Z,77.60
2022-08-19T09:19:33.771Z,76.90
2022-08-19T09:21:57.635Z,76.90
2022-08-19T09:24:21.301Z,78.60
2022-08-19T09:26:48.463Z,77.90
2022-08-19T09:29:16.720Z,77.00
2022-08-19T09:31:41.918Z,76.60
2022-08-19T09:34:07.331Z,76.30
2022-08-19T09:36:44.502Z,76.90
2022-08-19T09:39:16.187Z,75.40
2022-08-19T09:41:40.231Z,73.90
2022-08-19T09:44:04.958Z,74.70
2022-08-19T09:46:31.534Z,74.90
2022-08-19T09:48:57.847Z,74.30
2022-08-19T09:51:30.470Z,73.40
2022-08-19T09:53:55.707Z,72.90
2022-08-19T09:56:21.438Z,72.30
2022-08-19T09:58:45.542Z,72.90
2022-08-19T10:01:10.648Z,74.50
2022-08-19T10:03:37.399Z,73.70
2022-08-19T10:06:03.461Z,74.80
2022-08-19T10:08:31.922Z,74.60
2022-08-19T10:10:56.483Z,74.40
2022-08-19T10:13:26.012Z,72.80
2022-08-19T10:15:51.639Z,73.80
2022-08-19T10:18:15.477Z,74.50
2022-08-19T10:20:39.047Z,73.20
2022-08-19T10:23:02.656Z,74.70
2022-08-19T10:25:30.141Z,74.40
2022-08-19T10:27:55.985Z,71.70
2022-08-19T10:30:20.268Z,72.90
2022-08-19T10:32:46.500Z,70.50
2022-08-19T10:35:10.519Z,71.30
2022-08-19T10:37:34.423Z,70.10
2022-08-19T10:39:58.966Z,69.20
2022-08-19T10:42:24.103Z,70.20
2022-08-19T10:44:51.818Z,69.60
2022-08-19T10:47:24.372Z,70.50
2022-08-19T10:50:08.531Z,71.50
2022-08-19T10:52:35.597Z,70.70
2022-08-19T10:55:20.302Z,72.10
2022-08-19T10:58:01.869Z,72.30
2022-08-19T11:00:27.933Z,70.80
2022-08-19T11:02:51.579Z,67.20
2022-08-19T11:05:15.803Z,70.80
2022-08-19T11:07:40.621Z,69.70
2022-08-19T11:10:05.035Z,68.30
2022-08-19T11:12:29.080Z,66.20
2022-08-19T11:14:54.323Z,66.00
2022-08-19T11:17:18.173Z,69.60
2022-08-19T11:19:43.355Z,66.50
2022-08-19T11:22:10.384Z,68.80
2022-08-19T11:24:34.350Z,67.40
2022-08-19T11:27:05.706Z,69.10
2022-08-19T11:29:30.223Z,66.90
2022-08-19T11:31:55.945Z,67.10
2022-08-19T11:34:23.548Z,67.40
2022-08-19T11:36:49.642Z,65.90
2022-08-19T11:39:17.037Z,64.50
2022-08-19T11:41:41.199Z,62.70
2022-08-19T11:44:05.723Z,64.60
2022-08-19T11:46:30.384Z,63.70
2022-08-19T11:48:55.444Z,66.80
2022-08-19T11:51:22.502Z,67.40
2022-08-19T11:53:46.429Z,64.30
2022-08-19T11:56:11.699Z,65.70
2022-08-19T11:58:36.242Z,63.90
2022-08-19T12:01:00.076Z,64.90
2022-08-19T12:03:24.468Z,63.60
2022-08-19T12:05:50.888Z,62.20
2022-08-19T12:08:14.945Z,61.50
2022-08-19T12:10:39.994Z,60.50
2022-08-19T12:13:03.561Z,60.70
2022-08-19T12:15:37.140Z,60.90
2022-08-19T12:18:00.926Z,60.50
2022-08-19T12:20:27.241Z,61.50
2022-08-19T12:22:52.743Z,61.00
2022-08-19T12:25:17.133Z,60.40
2022-08-19T12:27:44.556Z,60.60
2022-08-19T12:30:15.743Z,61.50
2022-08-19T12:32:40.913Z,60.90
2022-08-19T12:35:04.640Z,58.50
2022-08-19T12:37:28.244Z,57.00
2022-08-19T12:39:53.288Z,56.50
2022-08-19T12:42:19.017Z,54.80
2022-08-19T12:44:44.757Z,59.70
2022-08-19T12:47:09.737Z,56.00
2022-08-19T12:49:54.514Z,56.90
2022-08-19T12:52:23.125Z,56.60
2022-08-19T12:54:47.226Z,56.50
2022-08-19T12:57:13.303Z,56.30
2022-08-19T12:59:37.599Z,55.80
2022-08-19T13:02:01.104Z,56.20
2022-08-19T13:04:24.777Z,56.90
2022-08-19T13:06:48.349Z,55.80
2022-08-19T13:09:12.599Z,58.10
2022-08-19T13:11:36.538Z,55.70
2022-08-19T13:14:02.777Z,57.60
2022-08-19T13:16:28.638Z,56.20
2022-08-19T13:18:53.164Z,57.20
2022-08-19T13:21:16.859Z,55.80
2022-08-19T13:23:40.395Z,55.00
2022-08-19T13:26:07.871Z,57.30
2022-08-19T13:28:52.085Z,56.70
2022-08-19T13:31:36.894Z,54.70
2022-08-19T13:34:00.514Z,54.60
2022-08-19T13:36:24.130Z,55.60
2022-08-19T13:38:47.713Z,55.30
2022-08-19T13:41:14.747Z,55.20
2022-08-19T13:43:39.242Z,55.30
2022-08-19T13:46:10.900Z,55.00
2022-08-19T13:48:36.014Z,55.70
2022-08-19T13:50:59.698Z,56.60
2022-08-19T13:53:23.323Z,56.30
2022-08-19T13:55:47.549Z,55.00
2022-08-19T13:58:13.024Z,55.50
2022-08-19T14:00:41.251Z,57.60
2022-08-19T14:03:09.169Z,57.80
2022-08-19T14:05:36.540Z,58.00
2022-08-19T14:08:01.314Z,59.00
2022-08-19T14:10:28.268Z,58.00
2022-08-19T14:12:56.326Z,57.30
2022-08-19T14:15:19.998Z,57.00
2022-08-19T14:17:49.678Z,58.00
2022-08-19T14:20:18.581Z,58.00
2022-08-19T14:22:45.135Z,57.40
2022-08-19T14:25:12.917Z,54.80
2022-08-19T14:27:37.454Z,55.80
2022-08-19T14:30:01.272Z,55.70
2022-08-19T14:32:27.796Z,55.10
2022-08-19T14:34:52.587Z,54.10
2022-08-19T14:37:16.622Z,54.20
2022-08-19T14:39:42.033Z,55.10
2022-08-19T14:42:11.458Z,53.90
2022-08-19T14:44:36.521Z,55.40
2022-08-19T14:47:00.560Z,55.40
2022-08-19T14:49:31.969Z,55.20
2022-08-19T14:51:59.295Z,56.40
2022-08-19T14:54:23.053Z,55.60
2022-08-19T14:56:51.324Z,54.00
2022-08-19T14:59:14.992Z,55.20
2022-08-19T15:01:38.793Z,54.60
2022-08-19T15:04:02.320Z,53.60
2022-08-19T15:06:27.007Z,53.10
2022-08-19T15:08:52.633Z,53.90
2022-08-19T15:11:21.941Z,54.90
2022-08-19T15:13:47.527Z,54.20
2022-08-19T15:16:17.736Z,54.90
2022-08-19T15:18:45.311Z,54.40
2022-08-19T15:21:09.239Z,54.10
2022-08-19T15:23:32.900Z,53.10
2022-08-19T15:25:56.755Z,52.00
2022-08-19T15:28:20.431Z,52.50
2022-08-19T15:30:45.688Z,54.00
2022-08-19T15:33:09.488Z,53.90
2022-08-19T15:35:33.465Z,53.80
2022-08-19T15:37:58.194Z,54.50
2022-08-19T15:40:23.149Z,56.20
2022-08-19T15:42:47.412Z,56.60
2022-08-19T15:45:12.606Z,54.50
2022-08-19T15:47:38.530Z,55.10
2022-08-19T15:50:02.486Z,55.50
2022-08-19T15:52:27.260Z,56.10
2022-08-19T15:54:50.887Z,58.40
2022-08-19T15:57:32.118Z,57.70
2022-08-19T16:00:13.461Z,58.20
2022-08-19T16:02:56.151Z,60.50
2022-08-19T16:05:42.339Z,58.20
2022-08-19T16:08:07.853Z,60.00
2022-08-19T16:10:31.499Z,60.20
2022-08-19T16:12:55.364Z,59.50
2022-08-19T16:15:21.036Z,60.50
2022-08-19T16:17:46.110Z,60.70
2022-08-19T16:20:24.116Z,61.40
2022-08-19T16:22:48.107Z,62.80
2022-08-19T16:25:12.283Z,63.40
2022-08-19T16:27:37.205Z,62.60
2022-08-19T16:30:01.088Z,64.10
2022-08-19T16:32:24.885Z,62.40
2022-08-19T16:34:50.513Z,63.40
2022-08-19T16:37:15.129Z,64.00
2022-08-19T16:39:39.401Z,63.90
2022-08-19T16:42:03.544Z,63.50
2022-08-19T16:44:31.325Z,64.60
2022-08-19T16:46:57.347Z,64.20
2022-08-19T16:49:53.027Z,64.30
2022-08-19T16:52:11.343Z,64.00
2022-08-19T16:54:36.075Z,63.40
2022-08-19T16:57:00.056Z,64.10
2022-08-19T16:59:25.032Z,62.90
2022-08-19T17:01:48.851Z,63.20
2022-08-19T17:04:13.479Z,64.20
2022-08-19T17:06:39.611Z,64.00
2022-08-19T17:09:07.213Z,64.90
2022-08-19T17:11:33.814Z,64.70
2022-08-19T17:13:59.064Z,64.30
2022-08-19T17:16:25.663Z,65.60
2022-08-19T17:18:52.916Z,65.20
2022-08-19T17:21:16.741Z,66.20
2022-08-19T17:23:43.258Z,67.10
2022-08-19T17:26:09.059Z,66.80
2022-08-19T17:28:40.372Z,68.10
2022-08-19T17:31:04.034Z,66.50
2022-08-19T17:33:28.180Z,66.80
2022-08-19T17:35:52.243Z,70.60
2022-08-19T17:38:19.748Z,72.80
2022-08-19T17:40:44.789Z,75.10
2022-08-19T17:43:10.007Z,76.40
2022-08-19T17:45:34.627Z,77.60
2022-08-19T17:47:58.159Z,79.40
2022-08-19T17:50:23.369Z,80.20
2022-08-19T17:52:47.109Z,81.30
2022-08-19T17:55:11.489Z,81.30
2022-08-19T17:57:35.232Z,81.30
2022-08-19T18:00:00.680Z,81.60
2022-08-19T18:02:28.332Z,81.60
2022-08-19T18:04:53.630Z,81.40
2022-08-19T18:07:21.773Z,82.40
2022-08-19T18:09:49.310Z,82.30
2022-08-19T18:12:16.437Z,82.60
2022-08-19T18:14:40.626Z,83.30
2022-08-19T18:17:09.531Z,82.70
2022-08-19T18:19:41.200Z,82.70
2022-08-19T18:22:06.689Z,82.50
2022-08-19T18:24:30.267Z,82.70
2022-08-19T18:26:55.235Z,83.10
2022-08-19T18:29:19.084Z,83.60
2022-08-19T18:31:43.841Z,84.30
2022-08-19T18:34:10.238Z,84.20
2022-08-19T18:36:52.937Z,83.00
2022-08-19T18:39:35.078Z,83.50
2022-08-19T18:42:18.928Z,83.90
2022-08-19T18:45:00.378Z,83.50
2022-08-19T18:47:42.027Z,84.00
2022-08-19T18:50:09.881Z,84.00
2022-08-19T18:52:35.735Z,84.10
2022-08-19T18:54:59.565Z,84.70
2022-08-19T18:57:24.872Z,84.10
2022-08-19T18:59:49.933Z,84.20
2022-08-19T19:02:14.730Z,85.10
2022-08-19T19:04:39.511Z,85.50
2022-08-19T19:07:06.079Z,85.10
2022-08-19T19:09:29.807Z,85.30
2022-08-19T19:11:57.947Z,84.40
2022-08-19T19:14:47.709Z,84.80
2022-08-19T19:17:12.998Z,85.00
2022-08-19T19:19:36.650Z,85.10
2022-08-19T19:22:01.192Z,83.60
2022-08-19T19:24:30.542Z,83.80
2022-08-19T19:26:55.081Z,83.40
2022-08-19T19:29:19.847Z,83.00
2022-08-19T19:31:44.571Z,82.70
2022-08-19T19:34:15.468Z,83.30
2022-08-19T19:36:53.320Z,82.90
2022-08-19T19:39:34.009Z,82.70
2022-08-19T19:42:03.206Z,83.30
2022-08-19T19:44:30.713Z,84.20
2022-08-19T19:46:59.866Z,84.60
2022-08-19T19:49:23.728Z,84.10
2022-08-19T19:51:48.306Z,84.00
2022-08-19T19:54:14.678Z,84.60
2022-08-19T19:56:38.299Z,85.00
2022-08-19T19:59:04.234Z,85.70
2022-08-19T20:01:27.944Z,85.50
2022-08-19T20:03:51.816Z,86.70
2022-08-19T20:06:18.617Z,86.40
2022-08-19T20:09:00.169Z,86.50
2022-08-19T20:11:32.908Z,86.00
2022-08-19T20:13:56.787Z,85.70
2022-08-19T20:16:25.337Z,86.20
2022-08-19T20:18:49.133Z,86.70
2022-08-19T20:21:14.242Z,86.90
2022-08-19T20:23:37.826Z,86.70
2022-08-19T20:26:01.406Z,87.10
2022-08-19T20:28:25.075Z,87.10
2022-08-19T20:30:49.502Z,86.80
2022-08-19T20:33:15.360Z,87.20
2022-08-19T20:35:39.694Z,87.20
2022-08-19T20:38:08.573Z,87.90
2022-08-19T20:40:34.200Z,88.00
2022-08-19T20:42:58.130Z,88.70
2022-08-19T20:45:32.647Z,89.20
2022-08-19T20:47:57.032Z,89.30
2022-08-19T20:50:22.205Z,89.10
2022-08-19T20:52:50.144Z,89.60
2022-08-19T20:55:17.214Z,90.10
2022-08-19T20:57:43.034Z,90.50
2022-08-19T21:00:11.387Z,90.00
2022-08-19T21:02:34.997Z,90.60
2022-08-19T21:05:00.064Z,91.10
2022-08-19T21:07:25.421Z,89.60
2022-08-19T21:10:02.641Z,89.70
2022-08-19T21:12:28.450Z,89.90
2022-08-19T21:14:52.015Z,90.40
2022-08-19T21:17:15.771Z,90.50
2022-08-19T21:19:39.886Z,91.60
2022-08-19T21:22:03.972Z,92.00
2022-08-19T21:24:31.634Z,90.80
2022-08-19T21:26:55.568Z,91.10
2022-08-19T21:29:19.242Z,91.90
2022-08-19T21:31:42.859Z,90.70
2022-08-19T21:34:07.126Z,90.80
2022-08-19T21:36:30.662Z,90.10
2022-08-19T21:38:54.590Z,90.10
2022-08-19T21:41:19.643Z,91.30
2022-08-19T21:43:43.678Z,90.70
2022-08-19T21:46:09.089Z,91.10
2022-08-19T21:48:32.928Z,90.40
2022-08-19T21:50:56.659Z,90.00
2022-08-19T21:53:23.018Z,90.50
2022-08-19T21:55:53.105Z,91.20
2022-08-19T21:58:18.764Z,90.60
2022-08-19T22:00:52.274Z,90.90
2022-08-19T22:03:18.732Z,91.70
2022-08-19T22:05:43.677Z,90.70
2022-08-19T22:08:07.291Z,90.30
2022-08-19T22:10:34.195Z,90.40
2022-08-19T22:13:01.625Z,90.10
2022-08-19T22:15:29.729Z,90.80
2022-08-19T22:17:54.348Z,91.00
2022-08-19T22:20:22.558Z,90.60
2022-08-19T22:22:49.833Z,90.60
2022-08-19T22:25:31.182Z,90.20
2022-08-19T22:27:57.258Z,90.40
2022-08-19T22:30:27.801Z,90.80
2022-08-19T22:33:00.896Z,90.40
2022-08-19T22:35:26.410Z,90.30
2022-08-19T22:37:51.262Z,90.50
2022-08-19T22:40:16.008Z,90.30
2022-08-19T22:42:40.253Z,90.50
2022-08-19T22:45:03.973Z,90.50
2022-08-19T22:47:30.227Z,90.50
2022-08-19T22:49:56.038Z,90.00
2022-08-19T22:52:19.731Z,90.20
2022-08-19T22:54:43.402Z,89.90
2022-08-19T22:57:07.292Z,90.20
2022-08-19T22:59:31.488Z,90.80
2022-08-19T23:01:55.101Z,90.40
2022-08-19T23:04:20.176Z,91.00
2022-08-19T23:06:43.763Z,91.40
2022-08-19T23:09:10.378Z,90.80
2022-08-19T23:11:39.858Z,90.90
2022-08-19T23:14:06.912Z,90.70
2022-08-19T23:16:34.732Z,91.30
2022-08-19T23:18:58.734Z,90.60
2022-08-19T23:21:26.653Z,91.50
2022-08-19T23:23:50.412Z,91.80
2022-08-19T23:26:14.492Z,92.60
2022-08-19T23:28:55.500Z,93.00
2022-08-19T23:31:20.071Z,92.70
2022-08-19T23:33:51.025Z,92.00
2022-08-19T23:36:18.524Z,92.60
2022-08-19T23:38:46.704Z,92.80
2022-08-19T23:41:13.023Z,93.40
2022-08-19T23:43:37.522Z,95.90
2022-08-19T23:46:10.420Z,93.20
2022-08-19T23:48:41.187Z,96.70
2022-08-19T23:51:09.586Z,98.10
2022-08-19T23:53:33.901Z,97.10
2022-08-19T23:55:59.806Z,98.30
2022-08-19T23:58:24.235Z,98.90
